Time;durP1;ratioP1;P1;durP2;ratioP2;P2;SDS_P1;SDS_P2;PMS_P1;PMS_P2;Temp;Humidity;BMP_temperature;BMP_pressure;BME280_temperature;BME280_humidity;BME280_pressure;Samples;Min_cycle;Max_cycle;Signal;HPM_P1;HPM_P2
2022/11/27 00:02:45;;;;;;;68.47;27.13;;;;;;;;;;6567851;28;20188;-92
2022/11/27 00:05:56;;;;;;;60.70;25.33;;;;;;;;;;6571503;28;20184;-92
2022/11/27 00:09:07;;;;;;;66.23;26.40;;;;;;;;;;6575573;28;20192;-91
2022/11/27 00:12:18;;;;;;;68.63;26.93;;;;;;;;;;6572605;28;20205;-90
2022/11/27 00:15:28;;;;;;;65.77;26.27;;;;;;;;;;6590955;28;20193;-90
2022/11/27 00:18:39;;;;;;;62.93;24.70;;;;;;;;;;6567798;28;20187;-90
2022/11/27 00:21:50;;;;;;;62.20;26.30;;;;;;;;;;6576392;28;20184;-90
2022/11/27 00:25:02;;;;;;;60.93;25.40;;;;;;;;;;6589437;28;20183;-90
2022/11/27 00:28:12;;;;;;;56.60;23.33;;;;;;;;;;6571668;28;20242;-90
2022/11/27 00:31:27;;;;;;;60.20;26.03;;;;;;;;;;6570277;28;20236;-91
2022/11/27 00:34:37;;;;;;;59.00;24.93;;;;;;;;;;6570644;28;20197;-91
2022/11/27 00:37:47;;;;;;;64.40;24.43;;;;;;;;;;6590421;28;20271;-92
2022/11/27 00:41:08;;;;;;;59.27;24.93;;;;;;;;;;6582751;28;20180;-91
2022/11/27 00:44:18;;;;;;;63.50;25.03;;;;;;;;;;6586579;28;20203;-91
2022/11/27 00:47:28;;;;;;;61.67;24.90;;;;;;;;;;6593042;28;20198;-91
2022/11/27 00:50:38;;;;;;;61.07;24.30;;;;;;;;;;6581614;28;20534;-91
2022/11/27 00:53:49;;;;;;;54.90;22.90;;;;;;;;;;6576562;28;20247;-91
2022/11/27 00:57:01;;;;;;;56.57;23.60;;;;;;;;;;6580169;28;20187;-91
2022/11/27 01:00:11;;;;;;;53.17;22.60;;;;;;;;;;6580012;28;20181;-92
2022/11/27 01:03:23;;;;;;;56.47;23.60;;;;;;;;;;6574797;28;20266;-91
2022/11/27 01:06:34;;;;;;;49.10;22.33;;;;;;;;;;6599849;28;20537;-91
2022/11/27 01:09:45;;;;;;;58.27;24.47;;;;;;;;;;6595803;28;20191;-91
2022/11/27 01:12:55;;;;;;;53.20;22.53;;;;;;;;;;6596571;28;20693;-92
2022/11/27 01:16:07;;;;;;;59.37;22.70;;;;;;;;;;6578667;28;20192;-92
2022/11/27 01:19:18;;;;;;;48.63;22.93;;;;;;;;;;6580445;28;20180;-92
2022/11/27 01:22:28;;;;;;;57.17;23.67;;;;;;;;;;6579807;28;20226;-92
2022/11/27 01:25:38;;;;;;;55.63;23.33;;;;;;;;;;6581582;28;20191;-91
2022/11/27 01:28:55;;;;;;;46.00;21.97;;;;;;;;;;6575917;28;20180;-90
2022/11/27 01:32:05;;;;;;;50.80;21.83;;;;;;;;;;6579022;28;20287;-90
2022/11/27 01:35:15;;;;;;;48.20;21.10;;;;;;;;;;6591452;28;20181;-91
2022/11/27 01:38:26;;;;;;;49.80;22.23;;;;;;;;;;6599573;28;20274;-90
2022/11/27 01:41:38;;;;;;;48.43;21.33;;;;;;;;;;6581177;28;20185;-90
2022/11/27 01:44:50;;;;;;;44.67;19.30;;;;;;;;;;6576457;28;20298;-91
2022/11/27 01:48:02;;;;;;;51.53;21.93;;;;;;;;;;6590631;28;20188;-90
2022/11/27 01:51:12;;;;;;;49.97;23.03;;;;;;;;;;6588996;28;20563;-90
2022/11/27 01:54:25;;;;;;;53.10;23.53;;;;;;;;;;6587909;28;20213;-91
2022/11/27 01:57:40;;;;;;;54.83;24.43;;;;;;;;;;6575580;28;20208;-90
2022/11/27 02:00:50;;;;;;;58.27;24.07;;;;;;;;;;6584269;28;20180;-90
2022/11/27 02:04:01;;;;;;;57.10;23.53;;;;;;;;;;6596069;28;20183;-90
2022/11/27 02:07:11;;;;;;;58.10;24.50;;;;;;;;;;6591555;28;20181;-90
2022/11/27 02:10:46;;;;;;;59.73;23.47;;;;;;;;;;6588331;28;20196;-90
2022/11/27 02:13:56;;;;;;;59.37;24.43;;;;;;;;;;6582293;28;20259;-91
2022/11/27 02:17:10;;;;;;;56.40;23.80;;;;;;;;;;6574486;28;20178;-91
2022/11/27 02:20:40;;;;;;;47.40;21.20;;;;;;;;;;6593747;28;20185;-91
2022/11/27 02:24:06;;;;;;;56.40;24.23;;;;;;;;;;6555411;28;20189;-91
2022/11/27 02:27:35;;;;;;;53.07;22.43;;;;;;;;;;6593775;28;20279;-91
2022/11/27 02:30:49;;;;;;;65.37;25.63;;;;;;;;;;6585602;28;20231;-90
2022/11/27 02:34:03;;;;;;;61.83;26.63;;;;;;;;;;6588895;28;20264;-91
2022/11/27 02:37:14;;;;;;;56.17;24.87;;;;;;;;;;6591271;28;20188;-91
2022/11/27 02:40:36;;;;;;;53.40;23.00;;;;;;;;;;6575958;28;20207;-91
2022/11/27 02:43:48;;;;;;;56.47;23.80;;;;;;;;;;6586043;28;20264;-91
2022/11/27 02:46:59;;;;;;;48.17;20.97;;;;;;;;;;6575170;28;20186;-91
2022/11/27 02:50:11;;;;;;;51.50;22.03;;;;;;;;;;6569082;28;20177;-90
2022/11/27 02:53:24;;;;;;;50.67;21.67;;;;;;;;;;6578712;28;20215;-90
2022/11/27 02:56:36;;;;;;;54.23;22.50;;;;;;;;;;6583573;28;20176;-91
2022/11/27 02:59:49;;;;;;;48.53;22.40;;;;;;;;;;6581831;28;20219;-91
2022/11/27 03:03:02;;;;;;;49.67;21.47;;;;;;;;;;6590769;28;20176;-89
2022/11/27 03:06:19;;;;;;;52.07;22.47;;;;;;;;;;6593849;28;20196;-91
2022/11/27 03:09:41;;;;;;;59.47;23.00;;;;;;;;;;6579787;28;20180;-91
2022/11/27 03:12:51;;;;;;;58.47;24.10;;;;;;;;;;6592955;28;20207;-91
2022/11/27 03:16:11;;;;;;;55.93;22.53;;;;;;;;;;6580014;28;20630;-91
2022/11/27 03:19:24;;;;;;;53.67;23.00;;;;;;;;;;6598337;28;20164;-91
2022/11/27 03:22:34;;;;;;;51.17;22.60;;;;;;;;;;6580422;28;20289;-91
2022/11/27 03:25:44;;;;;;;58.73;23.30;;;;;;;;;;6579558;28;20184;-91
2022/11/27 03:28:55;;;;;;;58.03;22.20;;;;;;;;;;6579403;28;20600;-91
2022/11/27 03:32:06;;;;;;;59.07;23.73;;;;;;;;;;6579283;28;20240;-89
2022/11/27 03:35:18;;;;;;;52.73;22.83;;;;;;;;;;6579220;28;20179;-90
2022/11/27 03:38:29;;;;;;;58.23;22.87;;;;;;;;;;6578893;28;20643;-90
2022/11/27 03:41:39;;;;;;;55.40;23.77;;;;;;;;;;6597238;28;20172;-90
2022/11/27 03:45:08;;;;;;;59.23;23.23;;;;;;;;;;6597161;28;20196;-90
2022/11/27 03:48:24;;;;;;;62.13;23.57;;;;;;;;;;6597444;28;20172;-90
2022/11/27 03:52:03;;;;;;;57.27;23.10;;;;;;;;;;6579087;28;20263;-90
2022/11/27 03:55:33;;;;;;;56.40;23.10;;;;;;;;;;6575396;28;20192;-90
2022/11/27 03:58:46;;;;;;;53.77;23.53;;;;;;;;;;6596733;28;20182;-90
2022/11/27 04:01:56;;;;;;;56.60;22.50;;;;;;;;;;6579286;28;20184;-91
2022/11/27 04:05:07;;;;;;;57.23;23.93;;;;;;;;;;6579295;28;20172;-91
2022/11/27 04:08:18;;;;;;;52.43;22.50;;;;;;;;;;6577749;28;20184;-91
2022/11/27 04:11:28;;;;;;;53.67;22.40;;;;;;;;;;6578249;28;20180;-91
2022/11/27 04:14:38;;;;;;;62.67;24.07;;;;;;;;;;6578312;28;20663;-91
2022/11/27 04:17:48;;;;;;;59.30;23.10;;;;;;;;;;6578663;28;20180;-90
2022/11/27 04:20:59;;;;;;;57.63;24.10;;;;;;;;;;6596334;28;20172;-91
2022/11/27 04:24:09;;;;;;;60.33;24.13;;;;;;;;;;6596020;28;20184;-90
2022/11/27 04:27:19;;;;;;;65.27;25.33;;;;;;;;;;6578635;28;20196;-90
2022/11/27 04:30:30;;;;;;;62.20;26.27;;;;;;;;;;6577510;28;20287;-90
2022/11/27 04:33:40;;;;;;;53.17;25.03;;;;;;;;;;6578382;28;20291;-91
2022/11/27 04:36:50;;;;;;;58.40;24.57;;;;;;;;;;6577724;28;20180;-91
2022/11/27 04:40:01;;;;;;;56.20;25.03;;;;;;;;;;6578410;28;20186;-91
2022/11/27 04:43:11;;;;;;;55.60;24.97;;;;;;;;;;6577734;28;20184;-91
2022/11/27 04:46:22;;;;;;;66.50;28.03;;;;;;;;;;6577521;28;20527;-91
2022/11/27 04:49:32;;;;;;;63.83;27.07;;;;;;;;;;6578501;28;20552;-91
2022/11/27 04:52:44;;;;;;;67.80;29.30;;;;;;;;;;6577870;28;20205;-91
2022/11/27 04:55:55;;;;;;;72.33;29.57;;;;;;;;;;6577921;28;20176;-91
2022/11/27 04:59:05;;;;;;;63.70;29.23;;;;;;;;;;6577645;28;20730;-91
2022/11/27 05:02:15;;;;;;;64.80;30.13;;;;;;;;;;6578392;28;20207;-90
2022/11/27 05:05:27;;;;;;;72.77;31.87;;;;;;;;;;6578107;28;20188;-90
2022/11/27 05:08:37;;;;;;;65.00;28.33;;;;;;;;;;6578039;28;20172;-90
2022/11/27 05:11:47;;;;;;;55.93;25.37;;;;;;;;;;6595298;28;20234;-90
2022/11/27 05:14:57;;;;;;;55.80;25.60;;;;;;;;;;6577217;28;20209;-90
2022/11/27 05:18:09;;;;;;;58.53;25.47;;;;;;;;;;6595337;28;20323;-90
2022/11/27 05:21:19;;;;;;;56.73;24.57;;;;;;;;;;6577995;28;20571;-90
2022/11/27 05:24:29;;;;;;;57.87;24.80;;;;;;;;;;6580238;28;20185;-90
2022/11/27 05:27:40;;;;;;;60.10;24.83;;;;;;;;;;6583078;28;20207;-91
2022/11/27 05:30:50;;;;;;;55.83;24.23;;;;;;;;;;6581766;28;20228;-91
2022/11/27 05:34:00;;;;;;;53.17;24.57;;;;;;;;;;6582790;28;20211;-92
2022/11/27 05:37:11;;;;;;;55.60;24.47;;;;;;;;;;6582461;28;20176;-91
2022/11/27 05:40:22;;;;;;;56.40;24.83;;;;;;;;;;6582379;28;20212;-92
2022/11/27 05:43:33;;;;;;;59.23;25.37;;;;;;;;;;6582029;28;20187;-92
2022/11/27 05:46:43;;;;;;;51.20;24.20;;;;;;;;;;6582598;28;20184;-91
2022/11/27 05:49:54;;;;;;;51.40;24.73;;;;;;;;;;6582390;28;20218;-91
2022/11/27 05:53:04;;;;;;;51.27;23.00;;;;;;;;;;6582353;28;20551;-91
2022/11/27 05:56:17;;;;;;;53.13;24.60;;;;;;;;;;6581331;28;20235;-92
2022/11/27 05:59:27;;;;;;;56.37;25.73;;;;;;;;;;6600216;28;20184;-91
2022/11/27 06:02:37;;;;;;;64.90;27.73;;;;;;;;;;6582193;28;20619;-92
2022/11/27 06:05:48;;;;;;;66.87;27.40;;;;;;;;;;6581801;28;20219;-91
2022/11/27 06:08:58;;;;;;;66.00;28.57;;;;;;;;;;6581373;28;20184;-91
2022/11/27 06:12:08;;;;;;;54.77;25.47;;;;;;;;;;6580889;28;20219;-92
2022/11/27 06:15:20;;;;;;;52.23;24.37;;;;;;;;;;6581781;28;20187;-90
2022/11/27 06:18:30;;;;;;;52.37;25.03;;;;;;;;;;6581547;28;20200;-90
2022/11/27 06:21:42;;;;;;;51.30;23.97;;;;;;;;;;6582134;28;20619;-90
2022/11/27 06:24:52;;;;;;;54.30;25.73;;;;;;;;;;6565097;28;20546;-91
2022/11/27 06:28:02;;;;;;;53.23;25.43;;;;;;;;;;6598589;28;20187;-91
2022/11/27 06:31:14;;;;;;;53.37;24.80;;;;;;;;;;6579830;28;20232;-91
2022/11/27 06:34:24;;;;;;;52.47;23.10;;;;;;;;;;6580519;28;20204;-91
2022/11/27 06:37:35;;;;;;;48.20;22.97;;;;;;;;;;6580568;28;20177;-91
2022/11/27 06:40:45;;;;;;;47.53;22.53;;;;;;;;;;6598026;28;20176;-91
2022/11/27 06:43:57;;;;;;;49.27;23.00;;;;;;;;;;6598626;28;20176;-90
2022/11/27 06:47:07;;;;;;;50.47;23.67;;;;;;;;;;6581182;28;20630;-90
2022/11/27 06:50:17;;;;;;;47.60;22.17;;;;;;;;;;6580683;28;20188;-90
2022/11/27 06:53:29;;;;;;;49.57;24.07;;;;;;;;;;6598346;28;20196;-90
2022/11/27 06:56:40;;;;;;;50.20;23.60;;;;;;;;;;6580503;28;20184;-90
2022/11/27 06:59:50;;;;;;;46.53;21.70;;;;;;;;;;6579688;28;20184;-90
2022/11/27 07:03:00;;;;;;;48.97;24.03;;;;;;;;;;6580076;28;20267;-90
2022/11/27 07:06:14;;;;;;;52.00;23.13;;;;;;;;;;6579822;28;20211;-90
2022/11/27 07:09:24;;;;;;;46.40;22.93;;;;;;;;;;6580123;28;20526;-90
2022/11/27 07:12:34;;;;;;;69.07;30.07;;;;;;;;;;6579538;28;20209;-90
2022/11/27 07:15:44;;;;;;;66.53;29.47;;;;;;;;;;6579585;28;20187;-90
2022/11/27 07:18:57;;;;;;;65.43;29.50;;;;;;;;;;6579205;28;20188;-92
2022/11/27 07:22:07;;;;;;;76.47;32.93;;;;;;;;;;6579992;28;20186;-91
2022/11/27 07:25:17;;;;;;;58.23;27.27;;;;;;;;;;6598297;28;20173;-91
2022/11/27 07:28:27;;;;;;;61.77;29.80;;;;;;;;;;6597873;28;20176;-91
2022/11/27 07:31:40;;;;;;;55.57;27.00;;;;;;;;;;6596708;28;20238;-91
2022/11/27 07:34:50;;;;;;;51.93;25.20;;;;;;;;;;6597844;28;20271;-90
2022/11/27 07:38:02;;;;;;;53.17;25.23;;;;;;;;;;6579216;28;20180;-91
2022/11/27 07:41:12;;;;;;;54.40;25.87;;;;;;;;;;6597207;28;20177;-91
2022/11/27 07:44:23;;;;;;;46.47;22.53;;;;;;;;;;6579380;28;20176;-90
2022/11/27 07:47:33;;;;;;;47.60;22.73;;;;;;;;;;6578136;28;20231;-90
2022/11/27 07:50:44;;;;;;;55.43;25.77;;;;;;;;;;6597365;28;20168;-91
2022/11/27 07:53:54;;;;;;;50.27;24.50;;;;;;;;;;6596479;28;20602;-90
2022/11/27 07:57:04;;;;;;;56.07;26.80;;;;;;;;;;6578624;28;20251;-90
2022/11/27 08:00:15;;;;;;;47.47;22.00;;;;;;;;;;6595824;28;20183;-91
2022/11/27 08:03:25;;;;;;;48.50;22.73;;;;;;;;;;6595956;28;20222;-92
2022/11/27 08:06:36;;;;;;;40.17;21.20;;;;;;;;;;6578145;28;20267;-90
2022/11/27 08:09:46;;;;;;;43.50;22.27;;;;;;;;;;6595714;28;20184;-91
2022/11/27 08:12:57;;;;;;;45.53;22.53;;;;;;;;;;6562674;28;20303;-90
2022/11/27 08:16:07;;;;;;;45.53;22.77;;;;;;;;;;6595752;28;20242;-91
2022/11/27 08:19:17;;;;;;;50.70;24.13;;;;;;;;;;6578190;28;20180;-92
2022/11/27 08:22:29;;;;;;;53.07;23.60;;;;;;;;;;6595987;28;20191;-92
2022/11/27 08:25:39;;;;;;;55.37;26.27;;;;;;;;;;6596295;28;20298;-92
2022/11/27 08:28:50;;;;;;;60.00;28.20;;;;;;;;;;6577794;28;20531;-91
2022/11/27 08:32:01;;;;;;;54.87;27.67;;;;;;;;;;6577225;28;20227;-93
2022/11/27 08:35:11;;;;;;;53.57;27.03;;;;;;;;;;6577695;28;20180;-92
2022/11/27 08:38:23;;;;;;;46.63;23.63;;;;;;;;;;6569256;28;20181;-92
2022/11/27 08:41:33;;;;;;;47.23;21.47;;;;;;;;;;6575424;28;20248;-92
2022/11/27 08:44:45;;;;;;;47.93;24.17;;;;;;;;;;6569337;28;20180;-92
2022/11/27 08:47:56;;;;;;;48.37;24.93;;;;;;;;;;6569403;28;20203;-90
2022/11/27 08:51:07;;;;;;;53.30;26.20;;;;;;;;;;6569087;28;20176;-90
2022/11/27 08:54:18;;;;;;;62.63;31.80;;;;;;;;;;6577519;28;20211;-90
2022/11/27 08:57:28;;;;;;;47.30;24.30;;;;;;;;;;6596387;28;20247;-90
2022/11/27 09:00:39;;;;;;;50.87;25.33;;;;;;;;;;6600721;28;20615;-90
2022/11/27 09:03:50;;;;;;;64.70;31.53;;;;;;;;;;6600833;28;20169;-91
2022/11/27 09:07:00;;;;;;;49.73;25.37;;;;;;;;;;6599888;28;20627;-92
2022/11/27 09:10:10;;;;;;;55.43;27.83;;;;;;;;;;6582508;28;20211;-92
2022/11/27 09:13:20;;;;;;;50.20;26.70;;;;;;;;;;6582377;28;20196;-91
2022/11/27 09:16:31;;;;;;;48.40;25.00;;;;;;;;;;6600066;28;20243;-91
2022/11/27 09:19:41;;;;;;;40.23;20.80;;;;;;;;;;6582415;28;20212;-91
2022/11/27 09:22:53;;;;;;;42.57;22.20;;;;;;;;;;6582522;28;20251;-92
2022/11/27 09:26:06;;;;;;;41.17;21.30;;;;;;;;;;6582708;28;20343;-91
2022/11/27 09:29:17;;;;;;;44.43;23.30;;;;;;;;;;6600080;28;20543;-91
2022/11/27 09:32:27;;;;;;;46.83;24.63;;;;;;;;;;6599881;28;20232;-94
2022/11/27 09:35:39;;;;;;;43.43;23.90;;;;;;;;;;6582529;28;20200;-90
2022/11/27 09:38:49;;;;;;;40.63;21.87;;;;;;;;;;6581175;28;20294;-92
2022/11/27 09:42:01;;;;;;;44.97;23.23;;;;;;;;;;6598920;28;20172;-91
2022/11/27 09:45:13;;;;;;;45.63;24.70;;;;;;;;;;6580094;28;20854;-91
2022/11/27 09:48:32;;;;;;;43.03;22.90;;;;;;;;;;6592898;28;20180;-92
2022/11/27 09:51:51;;;;;;;49.50;24.23;;;;;;;;;;6598374;28;20196;-91
2022/11/27 09:55:09;;;;;;;51.13;25.30;;;;;;;;;;6597999;28;20192;-91
2022/11/27 09:58:22;;;;;;;55.37;26.47;;;;;;;;;;6579953;28;20583;-93
2022/11/27 10:01:33;;;;;;;56.50;30.07;;;;;;;;;;6600237;28;20193;-93
2022/11/27 10:04:43;;;;;;;58.47;29.07;;;;;;;;;;6581642;28;20259;-92
2022/11/27 10:08:05;;;;;;;50.10;26.47;;;;;;;;;;6584249;28;20263;-93
2022/11/27 10:11:29;;;;;;;52.03;25.60;;;;;;;;;;6603677;28;20200;-93
2022/11/27 10:14:46;;;;;;;51.93;27.67;;;;;;;;;;6601961;28;20223;-93
2022/11/27 10:18:15;;;;;;;49.07;24.47;;;;;;;;;;6600734;28;20270;-93
2022/11/27 10:21:44;;;;;;;46.63;24.47;;;;;;;;;;6586392;28;20550;-92
2022/11/27 10:25:01;;;;;;;49.47;24.80;;;;;;;;;;6586640;28;20180;-93
2022/11/27 10:28:17;;;;;;;48.17;27.00;;;;;;;;;;6586754;28;20181;-93
2022/11/27 10:31:48;;;;;;;44.27;23.43;;;;;;;;;;6585715;28;20232;-92
2022/11/27 10:35:08;;;;;;;44.10;25.07;;;;;;;;;;6578275;28;20196;-93
2022/11/27 10:38:25;;;;;;;41.27;21.90;;;;;;;;;;6600567;28;20188;-93
2022/11/27 10:41:44;;;;;;;42.60;22.13;;;;;;;;;;6565655;28;20180;-94
2022/11/27 10:44:59;;;;;;;44.33;23.13;;;;;;;;;;6599234;28;20191;-93
2022/11/27 10:48:12;;;;;;;35.93;20.43;;;;;;;;;;6581220;28;20177;-93
2022/11/27 10:51:29;;;;;;;36.43;20.83;;;;;;;;;;6598155;28;20570;-93
2022/11/27 10:54:42;;;;;;;37.90;21.37;;;;;;;;;;6581309;28;20299;-94
2022/11/27 10:58:07;;;;;;;38.27;20.53;;;;;;;;;;6581289;28;20184;-94
2022/11/27 11:01:18;;;;;;;35.60;21.23;;;;;;;;;;6598789;28;20191;-93
2022/11/27 11:04:31;;;;;;;38.77;20.00;;;;;;;;;;6564465;28;20616;-93
2022/11/27 11:07:53;;;;;;;36.33;19.70;;;;;;;;;;6557112;28;20204;-94
2022/11/27 11:11:08;;;;;;;35.73;20.43;;;;;;;;;;6575466;28;20185;-92
2022/11/27 11:14:23;;;;;;;40.30;21.40;;;;;;;;;;6595506;28;20220;-92
2022/11/27 11:17:33;;;;;;;40.63;22.37;;;;;;;;;;6580290;28;20235;-92
2022/11/27 11:20:49;;;;;;;35.80;21.03;;;;;;;;;;6597076;28;20635;-92
2022/11/27 11:24:00;;;;;;;39.97;20.83;;;;;;;;;;6579023;28;20180;-91
2022/11/27 11:27:15;;;;;;;38.17;21.33;;;;;;;;;;6578753;28;20536;-92
2022/11/27 11:30:27;;;;;;;40.53;21.97;;;;;;;;;;6577648;28;20686;-92
2022/11/27 11:33:45;;;;;;;36.77;21.47;;;;;;;;;;6579216;28;20306;-91
2022/11/27 11:37:01;;;;;;;38.23;20.77;;;;;;;;;;6596942;28;20161;-92
2022/11/27 11:40:15;;;;;;;39.17;21.40;;;;;;;;;;6597035;28;20315;-91
2022/11/27 11:43:31;;;;;;;37.33;20.67;;;;;;;;;;6578555;28;20574;-94
2022/11/27 11:46:50;;;;;;;39.90;23.47;;;;;;;;;;6538757;28;20209;-94
2022/11/27 11:50:12;;;;;;;36.90;21.63;;;;;;;;;;6573931;28;20181;-93
2022/11/27 11:53:34;;;;;;;31.80;18.53;;;;;;;;;;6555633;28;20235;-93
2022/11/27 11:56:50;;;;;;;47.17;26.77;;;;;;;;;;6555959;28;20181;-93
2022/11/27 12:00:06;;;;;;;40.07;22.40;;;;;;;;;;6555897;28;20239;-94
2022/11/27 12:03:37;;;;;;;37.23;20.50;;;;;;;;;;6571853;28;20165;-95
2022/11/27 12:06:47;;;;;;;33.03;20.17;;;;;;;;;;6553788;28;20231;-93
2022/11/27 12:10:12;;;;;;;36.07;20.80;;;;;;;;;;6559389;28;20176;-90
2022/11/27 12:13:22;;;;;;;37.83;21.03;;;;;;;;;;6565106;28;20219;-92
2022/11/27 12:16:47;;;;;;;36.53;22.07;;;;;;;;;;6595963;28;20185;-93
2022/11/27 12:19:59;;;;;;;38.27;22.33;;;;;;;;;;6572309;28;20538;-93
2022/11/27 12:23:27;;;;;;;42.23;24.37;;;;;;;;;;6570322;28;20173;-94
2022/11/27 12:26:53;;;;;;;44.73;26.67;;;;;;;;;;6589989;28;20171;-93
2022/11/27 12:30:10;;;;;;;49.67;31.50;;;;;;;;;;6577566;28;20547;-93
2022/11/27 12:33:41;;;;;;;43.00;24.73;;;;;;;;;;6576152;28;20285;-93
2022/11/27 12:36:54;;;;;;;46.40;27.87;;;;;;;;;;6572880;28;20184;-92
2022/11/27 12:40:17;;;;;;;35.40;22.70;;;;;;;;;;6578300;28;20279;-92
2022/11/27 12:43:34;;;;;;;53.40;36.03;;;;;;;;;;6579637;28;20536;-93
2022/11/27 12:46:58;;;;;;;47.27;27.10;;;;;;;;;;6568466;28;20184;-93
2022/11/27 12:50:35;;;;;;;35.97;20.63;;;;;;;;;;6573308;28;20185;-94
2022/11/27 12:53:59;;;;;;;82.83;53.67;;;;;;;;;;6566948;28;20247;-93
2022/11/27 12:57:19;;;;;;;49.00;27.93;;;;;;;;;;6567637;28;20184;-92
2022/11/27 13:00:30;;;;;;;40.60;23.73;;;;;;;;;;6579858;28;20199;-93
2022/11/27 13:04:00;;;;;;;37.37;22.23;;;;;;;;;;6578330;28;20208;-93
2022/11/27 13:07:26;;;;;;;43.77;25.23;;;;;;;;;;6577916;28;20184;-92
2022/11/27 13:10:47;;;;;;;41.03;23.07;;;;;;;;;;6577525;28;20173;-92
2022/11/27 13:14:18;;;;;;;40.40;22.77;;;;;;;;;;6577320;28;20303;-92
2022/11/27 13:17:33;;;;;;;41.23;22.47;;;;;;;;;;6577351;28;20184;-92
2022/11/27 13:20:44;;;;;;;65.57;38.07;;;;;;;;;;6577054;28;20226;-92
2022/11/27 13:23:58;;;;;;;96.07;45.27;;;;;;;;;;6594211;28;20177;-92
2022/11/27 13:27:22;;;;;;;108.60;49.87;;;;;;;;;;6575510;28;20347;-92
2022/11/27 13:30:35;;;;;;;67.97;35.93;;;;;;;;;;6575267;28;20236;-92
2022/11/27 13:33:45;;;;;;;84.63;40.50;;;;;;;;;;6575569;28;20249;-93
2022/11/27 13:36:57;;;;;;;79.17;39.00;;;;;;;;;;6579813;28;20209;-93
2022/11/27 13:40:25;;;;;;;74.90;39.27;;;;;;;;;;6582640;28;20227;-92
2022/11/27 13:43:47;;;;;;;71.53;37.13;;;;;;;;;;6577812;28;20190;-92
2022/11/27 13:47:03;;;;;;;53.20;28.40;;;;;;;;;;6582653;28;20183;-92
2022/11/27 13:50:15;;;;;;;51.07;28.13;;;;;;;;;;6582028;28;20184;-92
2022/11/27 13:53:43;;;;;;;47.23;26.83;;;;;;;;;;6597687;28;20270;-93
2022/11/27 13:56:53;;;;;;;39.10;22.77;;;;;;;;;;6580690;28;20549;-92
2022/11/27 14:00:04;;;;;;;45.40;25.30;;;;;;;;;;6597203;28;20196;-92
2022/11/27 14:03:25;;;;;;;57.43;33.13;;;;;;;;;;6588877;28;20275;-92
2022/11/27 14:06:37;;;;;;;46.33;25.93;;;;;;;;;;6594592;28;20184;-92
2022/11/27 14:09:50;;;;;;;47.20;26.17;;;;;;;;;;6578639;28;20587;-92
2022/11/27 14:13:03;;;;;;;47.27;27.03;;;;;;;;;;6594578;28;20204;-93
2022/11/27 14:16:25;;;;;;;56.47;32.97;;;;;;;;;;6597112;28;20184;-92
2022/11/27 14:19:39;;;;;;;55.97;30.90;;;;;;;;;;6597059;28;20260;-93
2022/11/27 14:22:51;;;;;;;54.80;31.63;;;;;;;;;;6579164;28;20263;-95
2022/11/27 14:26:03;;;;;;;53.50;30.67;;;;;;;;;;6580569;28;20569;-94
2022/11/27 14:29:14;;;;;;;54.17;30.40;;;;;;;;;;6578456;28;20169;-90
2022/11/27 14:32:34;;;;;;;77.43;39.57;;;;;;;;;;6575257;28;20302;-91
2022/11/27 14:35:48;;;;;;;59.73;33.67;;;;;;;;;;6579290;28;20204;-94
2022/11/27 14:38:59;;;;;;;57.67;32.13;;;;;;;;;;6594134;28;20176;-93
2022/11/27 14:42:18;;;;;;;62.60;33.67;;;;;;;;;;6580136;28;20211;-94
2022/11/27 14:45:29;;;;;;;65.27;35.27;;;;;;;;;;6572071;28;20172;-93
2022/11/27 14:48:47;;;;;;;67.67;35.13;;;;;;;;;;6571664;28;20535;-93
2022/11/27 14:52:00;;;;;;;72.13;37.33;;;;;;;;;;6577872;28;20184;-92
2022/11/27 14:55:13;;;;;;;70.43;37.20;;;;;;;;;;6596084;28;20270;-94
2022/11/27 14:58:24;;;;;;;73.60;37.00;;;;;;;;;;6579079;28;20541;-93
2022/11/27 15:01:35;;;;;;;65.07;35.83;;;;;;;;;;6579765;28;20550;-94
2022/11/27 15:04:47;;;;;;;71.97;38.40;;;;;;;;;;6580001;28;20200;-94
2022/11/27 15:08:00;;;;;;;67.23;36.40;;;;;;;;;;6580402;28;20177;-93
2022/11/27 15:11:15;;;;;;;65.47;35.27;;;;;;;;;;6578089;28;20184;-94
2022/11/27 15:14:26;;;;;;;71.67;37.07;;;;;;;;;;6572044;28;20204;-94
2022/11/27 15:17:38;;;;;;;71.40;38.73;;;;;;;;;;6577644;28;20222;-94
2022/11/27 15:20:49;;;;;;;81.13;40.10;;;;;;;;;;6595241;28;20216;-94
2022/11/27 15:23:59;;;;;;;84.67;44.47;;;;;;;;;;6582914;28;20175;-94
2022/11/27 15:27:20;;;;;;;80.07;42.37;;;;;;;;;;6565277;28;20264;-94
2022/11/27 15:30:31;;;;;;;88.77;47.40;;;;;;;;;;6595032;28;20228;-94
2022/11/27 15:33:42;;;;;;;71.23;42.07;;;;;;;;;;6581571;28;20207;-94
2022/11/27 15:36:55;;;;;;;80.10;43.37;;;;;;;;;;6572895;28;20688;-94
2022/11/27 15:40:21;;;;;;;77.20;42.13;;;;;;;;;;6597410;28;20200;-93
2022/11/27 15:43:34;;;;;;;79.00;41.50;;;;;;;;;;6575894;28;20219;-94
2022/11/27 15:46:49;;;;;;;81.57;45.00;;;;;;;;;;6596740;28;20264;-94
2022/11/27 15:50:02;;;;;;;114.83;57.33;;;;;;;;;;6593918;28;20184;-94
2022/11/27 15:53:12;;;;;;;107.23;50.33;;;;;;;;;;6578634;28;20208;-93
2022/11/27 15:56:26;;;;;;;167.57;70.67;;;;;;;;;;6593006;28;20206;-94
2022/11/27 15:59:38;;;;;;;212.67;88.00;;;;;;;;;;6578882;28;20173;-94
2022/11/27 16:02:48;;;;;;;260.00;101.87;;;;;;;;;;6596062;28;20172;-94
2022/11/27 16:06:03;;;;;;;284.90;110.40;;;;;;;;;;6566461;28;20211;-92
2022/11/27 16:09:13;;;;;;;186.23;85.17;;;;;;;;;;6573944;28;20181;-93
2022/11/27 16:12:23;;;;;;;126.47;59.07;;;;;;;;;;6576635;28;20259;-95
2022/11/27 16:15:34;;;;;;;99.30;50.20;;;;;;;;;;6581916;28;20180;-93
2022/11/27 16:18:45;;;;;;;111.03;53.10;;;;;;;;;;6564409;28;20651;-94
2022/11/27 16:21:56;;;;;;;97.87;48.23;;;;;;;;;;6581544;28;20180;-93
2022/11/27 16:25:06;;;;;;;84.47;41.30;;;;;;;;;;6581582;28;20539;-94
2022/11/27 16:28:18;;;;;;;98.80;50.03;;;;;;;;;;6594118;28;20191;-94
2022/11/27 16:31:28;;;;;;;125.23;62.40;;;;;;;;;;6562083;28;20224;-91
2022/11/27 16:34:38;;;;;;;112.40;55.20;;;;;;;;;;6576266;28;20219;-92
2022/11/27 16:37:49;;;;;;;211.83;101.73;;;;;;;;;;6594169;28;20223;-92
2022/11/27 16:41:03;;;;;;;170.90;88.10;;;;;;;;;;6573344;28;20183;-92
2022/11/27 16:44:14;;;;;;;172.77;85.63;;;;;;;;;;6573167;28;20215;-92
2022/11/27 16:47:24;;;;;;;139.70;73.17;;;;;;;;;;6575505;28;20287;-92
2022/11/27 16:50:35;;;;;;;142.00;72.07;;;;;;;;;;6575476;28;20188;-89
2022/11/27 16:53:46;;;;;;;148.53;70.07;;;;;;;;;;6594117;28;20207;-91
2022/11/27 16:56:56;;;;;;;159.63;77.97;;;;;;;;;;6594270;28;20266;-92
2022/11/27 17:00:07;;;;;;;172.33;83.53;;;;;;;;;;6594667;28;20173;-90
2022/11/27 17:03:17;;;;;;;183.03;87.67;;;;;;;;;;6575727;28;20322;-89
2022/11/27 17:06:29;;;;;;;170.37;84.90;;;;;;;;;;6593658;28;20176;-90
2022/11/27 17:09:41;;;;;;;229.63;106.07;;;;;;;;;;6592994;28;20200;-89
2022/11/27 17:12:51;;;;;;;243.83;120.97;;;;;;;;;;6593780;28;20204;-89
2022/11/27 17:16:01;;;;;;;273.33;122.07;;;;;;;;;;6594375;28;20322;-89
2022/11/27 17:19:13;;;;;;;272.07;119.90;;;;;;;;;;6578763;28;20257;-90
2022/11/27 17:22:23;;;;;;;374.57;143.17;;;;;;;;;;6598909;28;20516;-89
2022/11/27 17:25:33;;;;;;;310.00;128.47;;;;;;;;;;6597143;28;20176;-88
2022/11/27 17:28:44;;;;;;;257.97;115.73;;;;;;;;;;6572061;28;20535;-89
2022/11/27 17:31:54;;;;;;;283.93;124.00;;;;;;;;;;6579381;28;20231;-89
2022/11/27 17:35:04;;;;;;;286.53;125.03;;;;;;;;;;6578958;28;20298;-89
2022/11/27 17:38:15;;;;;;;261.90;119.33;;;;;;;;;;6580640;28;20180;-88
2022/11/27 17:41:25;;;;;;;270.53;124.10;;;;;;;;;;6598131;28;20204;-90
2022/11/27 17:44:36;;;;;;;275.90;123.83;;;;;;;;;;6565672;28;20286;-89
2022/11/27 17:47:46;;;;;;;280.27;125.10;;;;;;;;;;6597768;28;20195;-90
2022/11/27 17:50:56;;;;;;;263.83;121.00;;;;;;;;;;6566563;28;20532;-90
2022/11/27 17:54:06;;;;;;;254.00;122.77;;;;;;;;;;6597842;28;20307;-89
2022/11/27 17:57:17;;;;;;;247.30;118.57;;;;;;;;;;6597943;28;20172;-89
2022/11/27 18:00:27;;;;;;;245.40;116.13;;;;;;;;;;6598433;28;20259;-89
2022/11/27 18:03:37;;;;;;;232.60;115.77;;;;;;;;;;6597083;28;20181;-90
2022/11/27 18:06:48;;;;;;;246.63;114.30;;;;;;;;;;6569006;28;20192;-89
2022/11/27 18:09:58;;;;;;;196.30;95.83;;;;;;;;;;6569356;28;20555;-90
2022/11/27 18:13:08;;;;;;;173.60;85.23;;;;;;;;;;6597468;28;20196;-90
2022/11/27 18:16:20;;;;;;;142.53;71.87;;;;;;;;;;6579552;28;20251;-89
2022/11/27 18:19:31;;;;;;;133.63;67.43;;;;;;;;;;6597340;28;20242;-89
2022/11/27 18:22:41;;;;;;;129.03;67.97;;;;;;;;;;6579390;28;20216;-90
2022/11/27 18:25:51;;;;;;;120.10;61.43;;;;;;;;;;6597542;28;20183;-90
2022/11/27 18:29:04;;;;;;;140.97;71.53;;;;;;;;;;6596981;28;20176;-90
2022/11/27 18:32:16;;;;;;;150.70;74.17;;;;;;;;;;6563221;28;20228;-90
2022/11/27 18:35:26;;;;;;;146.67;69.10;;;;;;;;;;6594460;28;20176;-90
2022/11/27 18:38:38;;;;;;;136.60;69.70;;;;;;;;;;6579198;28;20180;-90
2022/11/27 18:41:48;;;;;;;145.70;74.63;;;;;;;;;;6579241;28;20177;-89